Time;durP1;ratioP1;P1;durP2;ratioP2;P2;SDS_P1;SDS_P2;PMS_P1;PMS_P2;Temp;Humidity;BMP_temperature;BMP_pressure;BME280_temperature;BME280_humidity;BME280_pressure;Samples;Min_cycle;Max_cycle;Signal;HPM_P1;HPM_P2
2023/07/31 00:00:27;;;;;;;7.47;5.13;;;;;;;-145.63;53.90;39055.53;5033382;28;20056;-68
2023/07/31 00:02:53;;;;;;;9.95;5.95;;;;;;;-145.63;53.67;39067.28;5044626;28;20053;-68
2023/07/31 00:05:18;;;;;;;9.40;5.38;;;;;;;-145.63;54.11;39071.19;5026915;28;20249;-68
2023/07/31 00:07:44;;;;;;;8.95;5.55;;;;;;;-145.63;54.13;39073.13;5043558;28;20030;-68
2023/07/31 00:10:10;;;;;;;9.40;5.70;;;;;;;-145.63;53.73;39051.63;5034067;28;20022;-68
2023/07/31 00:12:35;;;;;;;8.95;5.60;;;;;;;-145.63;53.78;39032.06;5033820;28;20340;-68
2023/07/31 00:15:02;;;;;;;10.98;6.30;;;;;;;-145.63;53.62;39022.28;5043028;28;20029;-68
2023/07/31 00:17:31;;;;;;;10.52;6.20;;;;;;;-145.63;54.21;39069.22;5026473;28;20026;-69
2023/07/31 00:19:57;;;;;;;13.02;5.13;;;;;;;-145.63;53.81;39075.09;5027041;28;20026;-69
2023/07/31 00:22:22;;;;;;;10.48;5.50;;;;;;;-145.63;54.30;39028.16;5040196;28;20053;-69
2023/07/31 00:24:48;;;;;;;10.93;5.50;;;;;;;-145.63;54.21;39094.66;5036888;28;20378;-68
2023/07/31 00:27:14;;;;;;;8.60;5.18;;;;;;;-145.63;54.37;39059.44;5026303;28;20053;-68
2023/07/31 00:29:40;;;;;;;8.05;4.88;;;;;;;-145.63;54.30;39061.41;5025986;28;20134;-69
2023/07/31 00:32:06;;;;;;;7.68;5.28;;;;;;;-145.63;54.29;39092.69;5045815;28;20313;-69
2023/07/31 00:34:31;;;;;;;9.32;4.88;;;;;;;-145.63;54.63;39059.44;5045897;28;20086;-69
2023/07/31 00:36:57;;;;;;;6.97;5.03;;;;;;;-145.63;54.80;39047.72;5035452;28;20334;-69
2023/07/31 00:39:23;;;;;;;9.32;5.30;;;;;;;-145.63;54.78;39057.50;5025801;28;20038;-69
2023/07/31 00:41:48;;;;;;;9.35;5.35;;;;;;;-145.63;54.62;39063.34;5039082;28;20206;-69
2023/07/31 00:44:14;;;;;;;8.80;4.70;;;;;;;-145.63;54.81;39094.66;5025820;28;20029;-68
2023/07/31 00:46:40;;;;;;;10.70;5.35;;;;;;;-145.63;54.99;39090.75;5025789;28;20083;-68
2023/07/31 00:49:06;;;;;;;9.00;5.15;;;;;;;-145.63;54.66;39106.38;5037263;28;20025;-68
2023/07/31 00:51:32;;;;;;;11.93;5.30;;;;;;;-145.63;54.80;39122.03;5037571;28;20050;-68
2023/07/31 00:53:58;;;;;;;9.80;5.35;;;;;;;-145.63;54.64;39112.25;5025535;28;20045;-69
2023/07/31 00:56:25;;;;;;;11.55;5.40;;;;;;;-145.63;54.82;39098.56;5025529;28;20060;-66
2023/07/31 00:58:51;;;;;;;9.20;4.75;;;;;;;-145.63;54.67;39102.47;5037935;28;20030;-66
2023/07/31 01:01:16;;;;;;;7.55;4.88;;;;;;;-145.63;54.63;39114.22;5025880;28;20098;-67
2023/07/31 01:03:44;;;;;;;12.30;5.65;;;;;;;-145.63;54.92;39114.22;5025385;28;20095;-67
2023/07/31 01:06:40;;;;;;;8.88;4.90;;;;;;;-145.63;54.62;39141.59;5028906;28;20297;-67
2023/07/31 01:09:17;;;;;;;6.38;5.03;;;;;;;-145.63;54.70;39120.06;5042199;28;20030;-67
2023/07/31 01:11:51;;;;;;;7.40;4.53;;;;;;;-145.63;55.26;39108.34;5024940;28;20373;-67
2023/07/31 01:14:17;;;;;;;10.65;5.25;;;;;;;-145.63;54.90;39098.56;5024926;28;20041;-67
2023/07/31 01:16:43;;;;;;;7.90;5.18;;;;;;;-145.63;55.20;39088.78;5040134;28;20037;-67
2023/07/31 01:19:11;;;;;;;5.35;4.68;;;;;;;-145.63;55.12;39075.09;5033621;28;20037;-67
2023/07/31 01:21:36;;;;;;;7.82;5.28;;;;;;;-145.63;55.15;39063.34;5032080;28;20100;-68
2023/07/31 01:24:15;;;;;;;10.52;5.15;;;;;;;-145.63;54.65;39092.69;5042597;28;20337;-67
2023/07/31 01:26:46;;;;;;;8.43;5.65;;;;;;;-145.63;54.70;39079.00;5025221;28;20037;-67
2023/07/31 01:29:30;;;;;;;;;;;;;;;-145.63;54.59;39096.59;5025569;28;20263;-67
2023/07/31 01:31:59;;;;;;;9.25;5.15;;;;;;;-145.63;54.61;39139.63;5042527;28;19916;-66
2023/07/31 01:34:26;;;;;;;10.05;5.00;;;;;;;-145.63;54.53;39071.19;5030943;28;20294;-67
2023/07/31 01:36:52;;;;;;;9.13;4.72;;;;;;;-145.63;54.80;39092.69;5034039;28;20044;-68
2023/07/31 01:39:20;;;;;;;10.02;6.70;;;;;;;-145.63;54.76;39106.38;5040254;28;20258;-67
2023/07/31 01:41:46;;;;;;;9.15;6.88;;;;;;;-145.63;54.66;39092.69;5038800;28;20033;-68
2023/07/31 01:44:12;;;;;;;8.30;4.78;;;;;;;-145.63;54.59;39082.91;5025009;28;20025;-68
2023/07/31 01:46:37;;;;;;;8.63;4.47;;;;;;;-145.63;54.15;38977.31;5039785;28;20040;-68
2023/07/31 01:49:05;;;;;;;6.78;4.75;;;;;;;-145.63;54.22;39086.81;5033787;28;20079;-68
2023/07/31 01:51:33;;;;;;;9.48;5.10;;;;;;;-145.63;54.55;39096.59;5024355;28;20090;-68
2023/07/31 01:54:00;;;;;;;10.50;5.55;;;;;;;-145.63;54.59;39082.91;5026490;28;20030;-68
2023/07/31 01:56:26;;;;;;;6.30;4.80;;;;;;;-145.63;53.95;39094.66;5044252;28;20376;-68
2023/07/31 01:58:51;;;;;;;7.25;5.13;;;;;;;-145.63;54.34;39104.44;5027361;28;20053;-68
2023/07/31 02:01:17;;;;;;;8.75;5.22;;;;;;;-145.63;54.04;39067.28;5036763;28;20187;-69
2023/07/31 02:03:43;;;;;;;6.13;4.53;;;;;;;-145.63;54.08;39110.28;5036696;28;20049;-69
2023/07/31 02:06:08;;;;;;;7.00;4.50;;;;;;;-145.63;54.42;39090.75;5024315;28;20330;-68
2023/07/31 02:08:34;;;;;;;8.98;4.80;;;;;;;-145.63;54.94;39071.19;5023100;28;20033;-69
2023/07/31 02:11:00;;;;;;;8.85;4.60;;;;;;;-145.63;54.78;39114.22;5041442;28;20093;-68
2023/07/31 02:13:26;;;;;;;8.77;4.55;;;;;;;-145.63;54.65;39096.59;5029735;28;20057;-69
2023/07/31 02:15:51;;;;;;;7.85;4.63;;;;;;;-145.63;54.68;39094.66;5032722;28;20029;-69
2023/07/31 02:18:17;;;;;;;5.75;4.53;;;;;;;-145.63;54.62;39067.28;5039857;28;20037;-68
2023/07/31 02:20:46;;;;;;;7.90;5.15;;;;;;;-145.63;54.69;39057.50;5024080;28;20030;-68
2023/07/31 02:23:11;;;;;;;8.65;4.68;;;;;;;-145.63;54.77;39110.28;5043521;28;20045;-69
2023/07/31 02:25:37;;;;;;;9.07;5.10;;;;;;;-145.63;54.90;39092.69;5028971;28;20317;-68
2023/07/31 02:28:03;;;;;;;9.77;4.78;;;;;;;-145.63;54.50;39082.91;5034047;28;20345;-69
2023/07/31 02:30:29;;;;;;;7.47;4.72;;;;;;;-145.63;54.40;39104.44;5042918;28;20261;-69
2023/07/31 02:32:54;;;;;;;8.63;4.20;;;;;;;-145.63;54.23;39118.13;5041814;28;20022;-68
2023/07/31 02:35:20;;;;;;;7.15;4.43;;;;;;;-145.63;54.38;39067.28;5023914;28;20084;-68
2023/07/31 02:37:46;;;;;;;13.30;5.10;;;;;;;-145.63;54.60;39092.69;5039889;28;20116;-70
2023/07/31 02:40:12;;;;;;;8.75;5.25;;;;;;;-145.63;54.44;39092.69;5033326;28;20030;-69
2023/07/31 02:42:38;;;;;;;8.85;5.55;;;;;;;-145.63;54.26;39094.66;5036866;28;20026;-69
2023/07/31 02:45:04;;;;;;;10.85;5.70;;;;;;;-145.63;54.39;39106.38;5023747;28;20044;-69
2023/07/31 02:47:32;;;;;;;8.55;5.30;;;;;;;-145.63;54.42;39067.28;5023825;28;20128;-69
2023/07/31 02:49:59;;;;;;;12.23;4.93;;;;;;;-145.63;54.46;39080.97;5041020;28;20025;-67
2023/07/31 02:52:25;;;;;;;11.02;4.93;;;;;;;-145.63;54.38;39082.91;5030295;28;20030;-68
2023/07/31 02:54:50;;;;;;;13.13;8.40;;;;;;;-145.63;54.51;39047.72;5031649;28;20029;-68
2023/07/31 02:57:16;;;;;;;12.80;6.00;;;;;;;-145.63;54.41;39049.66;5040080;28;20345;-68
2023/07/31 02:59:42;;;;;;;13.50;5.60;;;;;;;-145.63;54.33;39055.53;5023656;28;20026;-68
2023/07/31 03:02:07;;;;;;;10.30;5.18;;;;;;;-145.63;54.62;38992.97;5042092;28;20025;-68
2023/07/31 03:04:33;;;;;;;8.18;5.15;;;;;;;-145.63;54.78;39037.94;5029276;28;20029;-68
2023/07/31 03:06:59;;;;;;;10.45;5.10;;;;;;;-145.63;54.28;39055.53;5032550;28;20218;-68
2023/07/31 03:09:24;;;;;;;10.85;5.40;;;;;;;-145.63;54.24;39047.72;5043035;28;20301;-68
2023/07/31 03:11:50;;;;;;;10.10;5.38;;;;;;;-145.63;53.84;39071.19;5043405;28;20157;-68
2023/07/31 03:14:16;;;;;;;9.45;4.70;;;;;;;-145.63;53.77;39039.88;5023635;28;20041;-69
2023/07/31 03:16:41;;;;;;;12.63;7.28;;;;;;;-145.63;53.48;39049.66;5023113;28;20044;-68
2023/07/31 03:19:07;;;;;;;8.95;5.35;;;;;;;-145.63;53.60;39014.47;5033006;28;20033;-68
2023/07/31 03:21:33;;;;;;;13.98;7.43;;;;;;;-145.63;53.25;39008.59;5030216;28;20025;-70
2023/07/31 03:23:58;;;;;;;13.57;6.75;;;;;;;-145.63;53.40;38994.91;5046455;28;20032;-68
2023/07/31 03:26:24;;;;;;;15.48;6.20;;;;;;;-145.63;53.53;38998.81;5027460;28;20029;-68
2023/07/31 03:28:49;;;;;;;10.80;5.15;;;;;;;-145.63;52.56;38973.41;5043225;28;20029;-67
2023/07/31 03:31:15;;;;;;;8.38;4.63;;;;;;;-145.63;52.64;38996.88;5046844;28;20035;-67
2023/07/31 03:33:41;;;;;;;11.95;6.10;;;;;;;-145.63;51.78;38944.06;5047080;28;20037;-68
2023/07/31 03:36:07;;;;;;;12.55;5.78;;;;;;;-145.63;52.11;38985.13;5045077;28;20084;-67
2023/07/31 03:38:34;;;;;;;7.40;4.35;;;;;;;-145.63;51.40;38934.28;5027012;28;20219;-67
2023/07/31 03:41:00;;;;;;;8.90;4.30;;;;;;;-145.63;50.91;38944.06;5036694;28;20030;-68
2023/07/31 03:43:26;;;;;;;6.43;4.80;;;;;;;-145.63;50.56;38951.88;5039574;28;20060;-68
2023/07/31 03:45:51;;;;;;;8.20;4.47;;;;;;;-145.63;50.60;38942.13;5039084;28;20042;-68
2023/07/31 03:48:17;;;;;;;6.35;4.20;;;;;;;-145.63;50.44;38922.56;5029917;28;20036;-67
2023/07/31 03:50:43;;;;;;;6.85;4.45;;;;;;;-145.63;50.59;38899.09;5046490;28;20033;-68
2023/07/31 03:53:08;;;;;;;6.57;4.43;;;;;;;-145.63;50.03;38854.13;5033103;28;20088;-68
2023/07/31 03:55:34;;;;;;;6.10;3.78;;;;;;;-145.63;49.29;38867.81;5032989;28;20025;-68
2023/07/31 03:58:00;;;;;;;6.95;4.97;;;;;;;-145.63;48.90;38809.13;5035207;28;20044;-69
2023/07/31 04:00:27;;;;;;;8.68;5.03;;;;;;;-145.63;47.91;38773.94;5041973;28;20029;-68
2023/07/31 04:02:53;;;;;;;10.82;5.30;;;;;;;-145.63;47.73;38770.03;5025289;28;20231;-68
2023/07/31 04:05:18;;;;;;;6.60;4.35;;;;;;;-145.63;46.99;38801.31;5046189;28;20025;-68
2023/07/31 04:07:44;;;;;;;7.00;5.30;;;;;;;-145.63;47.28;38834.56;5046201;28;20038;-68
2023/07/31 04:10:10;;;;;;;7.13;4.10;;;;;;;-145.63;46.48;38824.78;5036051;28;20022;-68
2023/07/31 04:12:36;;;;;;;7.80;3.88;;;;;;;-145.63;46.79;38811.09;5026026;28;20068;-67
2023/07/31 04:15:02;;;;;;;6.78;4.28;;;;;;;-145.63;46.76;38762.22;5026922;28;20034;-67
2023/07/31 04:17:32;;;;;;;5.43;3.80;;;;;;;-145.63;46.80;38801.31;5045941;28;20036;-68
2023/07/31 04:19:57;;;;;;;8.45;4.15;;;;;;;-145.63;46.31;38816.97;5046218;28;20211;-68
2023/07/31 04:22:23;;;;;;;7.68;4.20;;;;;;;-145.63;46.33;38816.97;5033913;28;20076;-67
2023/07/31 04:24:49;;;;;;;4.78;3.55;;;;;;;-145.63;46.58;38799.34;5026043;28;20322;-67
2023/07/31 04:27:14;;;;;;;6.97;3.88;;;;;;;-145.63;46.23;38789.59;5025906;28;20253;-67
2023/07/31 04:29:42;;;;;;;6.75;4.18;;;;;;;-145.63;45.37;38789.59;5025452;28;20030;-68
2023/07/31 04:32:08;;;;;;;10.80;4.60;;;;;;;-145.63;44.64;38762.22;5043993;28;20030;-68
2023/07/31 04:34:34;;;;;;;7.55;3.50;;;;;;;-145.63;44.82;38781.75;5044984;28;20060;-69
2023/07/31 04:36:59;;;;;;;6.60;3.80;;;;;;;-145.63;45.02;38887.34;5037234;28;20026;-69
2023/07/31 04:39:25;;;;;;;5.80;3.80;;;;;;;-145.63;44.77;38762.22;5029246;28;20030;-69
2023/07/31 04:41:51;;;;;;;8.35;3.78;;;;;;;-145.63;44.71;38758.28;5040313;28;20021;-68
2023/07/31 04:44:16;;;;;;;6.90;3.28;;;;;;;-145.63;44.59;38771.97;5041011;28;20026;-68
2023/07/31 04:46:42;;;;;;;4.07;3.40;;;;;;;-145.63;44.52;38738.75;5025184;28;20038;-68
2023/07/31 04:49:07;;;;;;;4.57;3.17;;;;;;;-145.63;44.69;38697.69;5034692;28;20025;-68
2023/07/31 04:51:33;;;;;;;5.53;3.60;;;;;;;-145.63;44.71;38709.41;5040334;28;20034;-69
2023/07/31 04:53:59;;;;;;;6.63;3.53;;;;;;;-145.63;44.07;38703.53;5026333;28;20375;-68
2023/07/31 04:56:24;;;;;;;7.65;3.42;;;;;;;-145.63;44.02;38691.81;5045377;28;20240;-67
2023/07/31 04:58:50;;;;;;;7.65;3.80;;;;;;;-145.63;44.32;38699.63;5029905;28;20084;-69
2023/07/31 05:01:16;;;;;;;7.85;3.70;;;;;;;-145.63;44.77;38684.00;5036027;28;20053;-68
2023/07/31 05:03:41;;;;;;;8.70;3.50;;;;;;;-145.63;44.40;38648.78;5039548;28;20062;-68
2023/07/31 05:06:07;;;;;;;6.50;3.42;;;;;;;-145.63;44.34;38650.75;5026656;28;20066;-69
2023/07/31 05:08:33;;;;;;;7.72;3.47;;;;;;;-145.63;43.80;38586.22;5045038;28;20021;-68
2023/07/31 05:10:59;;;;;;;10.10;4.35;;;;;;;-145.63;43.11;38637.06;5029047;28;20022;-68
2023/07/31 05:13:24;;;;;;;8.80;3.35;;;;;;;-145.63;43.34;38597.94;5036857;28;20030;-69
2023/07/31 05:15:50;;;;;;;7.20;3.67;;;;;;;-145.63;43.46;38566.66;5038298;28;20045;-68
2023/07/31 05:18:16;;;;;;;6.25;3.60;;;;;;;-145.63;43.38;38592.09;5027324;28;20034;-69
2023/07/31 05:20:41;;;;;;;6.75;2.88;;;;;;;-145.63;42.74;38578.41;5044829;28;20041;-69
2023/07/31 05:23:07;;;;;;;7.22;3.38;;;;;;;-145.63;42.77;38535.38;5027535;28;20038;-68
2023/07/31 05:25:33;;;;;;;9.50;3.78;;;;;;;-145.63;41.91;38554.94;5037560;28;20025;-68
2023/07/31 05:27:59;;;;;;;8.07;3.55;;;;;;;-145.63;42.19;38412.19;5036997;28;20049;-68
2023/07/31 05:30:24;;;;;;;10.25;3.60;;;;;;;-145.63;41.37;38509.97;5029187;28;20044;-69
2023/07/31 05:32:50;;;;;;;6.72;3.22;;;;;;;-145.63;41.76;38508.00;5044594;28;20092;-69
2023/07/31 05:35:16;;;;;;;3.75;3.05;;;;;;;-145.63;41.76;38506.03;5026319;28;20318;-68
2023/07/31 05:37:41;;;;;;;7.40;3.45;;;;;;;-145.63;41.27;38490.41;5038310;28;20044;-69
2023/07/31 05:40:07;;;;;;;6.30;2.90;;;;;;;-145.63;40.23;38437.59;5035965;28;20412;-68
2023/07/31 05:42:34;;;;;;;7.47;3.10;;;;;;;-145.63;38.34;38410.22;5039824;28;20052;-69
2023/07/31 05:45:00;;;;;;;6.82;2.53;;;;;;;-145.63;40.17;38384.81;5023664;28;20089;-69
2023/07/31 05:47:25;;;;;;;4.25;2.80;;;;;;;-145.63;39.35;38355.50;5024338;28;20029;-69
2023/07/31 05:49:52;;;;;;;4.88;3.13;;;;;;;-145.63;38.65;38326.16;5039554;28;20092;-70
2023/07/31 05:52:19;;;;;;;5.93;2.58;;;;;;;-145.63;39.73;38337.88;5039541;28;20121;-69
2023/07/31 05:54:45;;;;;;;4.32;3.15;;;;;;;-145.63;38.25;38386.78;5024260;28;20044;-69
2023/07/31 05:57:12;;;;;;;6.20;3.05;;;;;;;-145.63;39.02;38347.66;5024549;28;20026;-69
2023/07/31 05:59:37;;;;;;;4.10;3.10;;;;;;;-145.63;38.88;38359.41;5024489;28;20219;-69
2023/07/31 06:02:03;;;;;;;3.90;2.80;;;;;;;-145.63;38.69;38333.97;5040641;28;20028;-69
2023/07/31 06:04:29;;;;;;;8.55;2.78;;;;;;;-145.63;38.25;38341.81;5032292;28;20222;-68
2023/07/31 06:06:55;;;;;;;4.80;2.60;;;;;;;-145.63;38.03;38339.84;5031285;28;20057;-68
2023/07/31 06:09:20;;;;;;;4.30;3.20;;;;;;;-145.63;38.06;38333.97;5041991;28;20036;-70
2023/07/31 06:11:46;;;;;;;4.65;3.13;;;;;;;-145.63;36.90;38308.56;5024418;28;20022;-68
2023/07/31 06:14:12;;;;;;;5.65;3.30;;;;;;;-145.63;37.94;38332.03;5040450;28;20030;-69
2023/07/31 06:16:37;;;;;;;4.38;2.65;;;;;;;-145.63;36.25;38322.25;5031034;28;20207;-69
2023/07/31 06:19:03;;;;;;;7.03;2.67;;;;;;;-145.63;35.27;38300.75;5032219;28;20044;-69
2023/07/31 06:21:29;;;;;;;6.13;2.88;;;;;;;-145.63;35.52;38290.97;5040317;28;20034;-68
2023/07/31 06:23:55;;;;;;;3.80;2.60;;;;;;;-145.63;36.15;38259.69;5023732;28;20030;-68
2023/07/31 06:26:21;;;;;;;10.30;2.90;;;;;;;-145.63;36.79;38251.84;5042167;28;20029;-69
2023/07/31 06:28:46;;;;;;;4.18;2.67;;;;;;;-145.63;35.90;38269.47;5030105;28;20029;-68
2023/07/31 06:31:12;;;;;;;4.22;2.08;;;;;;;-145.63;35.04;38283.16;5034707;28;20033;-68
2023/07/31 06:33:38;;;;;;;3.35;1.83;;;;;;;-145.63;34.08;38234.25;5043705;28;20055;-69
2023/07/31 06:36:03;;;;;;;4.15;2.00;;;;;;;-145.63;34.76;38226.44;5043635;28;20109;-68
2023/07/31 06:38:29;;;;;;;2.35;2.03;;;;;;;-145.63;34.36;38234.25;5023946;28;20036;-69
2023/07/31 06:40:55;;;;;;;2.22;1.88;;;;;;;-145.63;35.01;38175.59;5031605;28;20030;-68
2023/07/31 06:43:21;;;;;;;6.93;4.68;;;;;;;-145.63;35.54;38193.19;5033798;28;20183;-69
2023/07/31 06:45:49;;;;;;;6.82;2.80;;;;;;;-145.63;33.88;38216.66;5037759;28;20029;-67
2023/07/31 06:48:15;;;;;;;4.60;2.47;;;;;;;-145.63;32.88;38173.66;5024776;28;20033;-69
2023/07/31 06:50:41;;;;;;;3.30;2.10;;;;;;;-145.63;32.15;38193.19;5043660;28;20036;-70
2023/07/31 06:53:06;;;;;;;3.58;2.40;;;;;;;-145.63;33.12;38156.06;5027077;28;20040;-69
2023/07/31 06:55:32;;;;;;;4.72;2.20;;;;;;;-145.63;34.21;38152.16;5034803;28;20299;-69
2023/07/31 06:57:58;;;;;;;3.55;2.13;;;;;;;-145.63;33.06;38134.53;5036357;28;20147;-69
2023/07/31 07:00:24;;;;;;;1.98;1.77;;;;;;;-145.63;33.52;38152.16;5025522;28;20040;-69
2023/07/31 07:02:50;;;;;;;3.47;1.83;;;;;;;-145.63;33.73;38142.38;5043269;28;20053;-69
2023/07/31 07:05:17;;;;;;;2.25;2.00;;;;;;;-145.63;32.99;38140.41;5043346;28;20309;-69
2023/07/31 07:07:43;;;;;;;2.85;2.08;;;;;;;-145.63;32.76;38132.59;5030172;28;20037;-69
2023/07/31 07:10:10;;;;;;;3.22;2.10;;;;;;;-145.63;32.50;38103.25;5035340;28;20032;-67
2023/07/31 07:12:35;;;;;;;3.17;2.33;;;;;;;-145.63;33.30;38120.88;5039319;28;20022;-68
2023/07/31 07:15:02;;;;;;;3.63;2.40;;;;;;;-145.63;33.17;38077.84;5023319;28;20084;-69
2023/07/31 07:17:33;;;;;;;3.35;2.30;;;;;;;-145.63;33.46;38042.66;5037944;28;20044;-68
2023/07/31 07:19:59;;;;;;;5.95;2.20;;;;;;;-145.63;32.63;38058.28;5023367;28;20026;-69
2023/07/31 07:22:26;;;;;;;5.25;2.90;;;;;;;-145.63;31.32;38038.75;5023023;28;20029;-69
2023/07/31 07:24:52;;;;;;;4.45;2.42;;;;;;;-145.63;31.53;38056.34;5029035;28;20025;-69
2023/07/31 07:27:18;;;;;;;2.85;1.77;;;;;;;-145.63;30.16;38042.66;5041993;28;20353;-68
2023/07/31 07:29:45;;;;;;;5.18;2.08;;;;;;;-145.63;32.01;38013.31;5023192;28;20037;-68
2023/07/31 07:32:11;;;;;;;4.43;2.33;;;;;;;-145.63;31.80;38050.47;5041998;28;20021;-69
2023/07/31 07:34:37;;;;;;;5.10;1.83;;;;;;;-145.63;31.54;38028.97;5032944;28;20381;-69
2023/07/31 07:37:03;;;;;;;2.65;2.00;;;;;;;-145.63;32.17;38015.28;5035541;28;20038;-69
2023/07/31 07:39:29;;;;;;;2.55;2.08;;;;;;;-145.63;29.80;38023.09;5025959;28;20332;-69
2023/07/31 07:41:55;;;;;;;5.93;2.10;;;;;;;-145.63;30.78;38001.59;5027711;28;20046;-68
2023/07/31 07:44:21;;;;;;;2.10;1.80;;;;;;;-145.63;31.17;38015.28;5040721;28;20029;-70
2023/07/31 07:46:47;;;;;;;3.25;1.85;;;;;;;-145.63;30.84;37997.69;5029337;28;20038;-69
2023/07/31 07:49:12;;;;;;;3.08;2.13;;;;;;;-145.63;29.96;37960.53;5023400;28;20029;-73
2023/07/31 07:51:38;;;;;;;2.63;1.60;;;;;;;-145.63;30.25;37952.72;5026653;28;20030;-71
2023/07/31 07:54:04;;;;;;;7.93;2.63;;;;;;;-145.63;30.96;37960.53;5043001;28;20025;-69
2023/07/31 07:56:30;;;;;;;2.45;1.90;;;;;;;-145.63;29.37;37941.00;5023801;28;20097;-70
2023/07/31 07:58:55;;;;;;;4.88;1.90;;;;;;;-145.63;30.89;37917.53;5037540;28;20036;-71
2023/07/31 08:01:21;;;;;;;4.68;1.85;;;;;;;-145.63;30.79;37892.13;5032164;28;20301;-68
2023/07/31 08:03:47;;;;;;;2.95;1.98;;;;;;;-145.63;30.14;37923.41;5027861;28;20072;-67
2023/07/31 08:06:14;;;;;;;4.10;1.88;;;;;;;-145.63;28.43;37909.72;5042641;28;20329;-67
2023/07/31 08:08:40;;;;;;;2.05;1.70;;;;;;;-145.63;30.49;37878.44;5024514;28;20134;-67
2023/07/31 08:11:06;;;;;;;2.75;1.77;;;;;;;-145.63;29.37;37923.41;5041816;28;20222;-68
2023/07/31 08:13:31;;;;;;;6.70;2.20;;;;;;;-145.63;29.50;37876.47;5050597;28;20022;-68
2023/07/31 08:15:57;;;;;;;4.43;2.05;;;;;;;-145.63;28.73;37874.53;5026571;28;20036;-68
2023/07/31 08:18:23;;;;;;;4.43;1.83;;;;;;;-145.63;29.40;37811.97;5027410;28;20034;-68
2023/07/31 08:20:48;;;;;;;2.88;2.00;;;;;;;-145.63;30.25;37837.38;5046054;28;20022;-67
2023/07/31 08:23:14;;;;;;;3.05;1.98;;;;;;;-145.63;28.84;37829.56;5029446;28;20152;-68
2023/07/31 08:25:40;;;;;;;3.13;2.13;;;;;;;-145.63;29.40;37778.72;5037968;28;20029;-67
2023/07/31 08:28:06;;;;;;;5.45;2.30;;;;;;;-145.63;28.73;37657.50;5038984;28;20368;-67
2023/07/31 08:30:36;;;;;;;5.13;2.10;;;;;;;-145.63;30.15;37768.94;5031091;28;20022;-68
2023/07/31 08:33:02;;;;;;;3.75;1.67;;;;;;;-145.63;28.25;37768.94;5046138;28;20029;-68
2023/07/31 08:35:28;;;;;;;3.55;1.70;;;;;;;-145.63;27.30;37808.06;5027542;28;20034;-67
2023/07/31 08:37:54;;;;;;;4.57;1.80;;;;;;;-145.63;27.00;37778.72;5039808;28;20364;-68
2023/07/31 08:40:21;;;;;;;5.88;2.10;;;;;;;-145.63;28.29;37739.63;5038592;28;20029;-68
2023/07/31 08:42:49;;;;;;;2.45;1.60;;;;;;;-145.63;27.04;37768.94;5027473;28;20025;-67
2023/07/31 08:45:20;;;;;;;4.10;2.00;;;;;;;-145.63;28.52;37737.66;5029706;28;20021;-68
2023/07/31 08:47:50;;;;;;;2.10;1.90;;;;;;;-145.63;27.83;37743.53;5048656;28;20025;-68
2023/07/31 08:50:18;;;;;;;2.20;1.75;;;;;;;-145.63;27.94;37686.84;5028823;28;20333;-67
2023/07/31 08:52:45;;;;;;;3.78;1.75;;;;;;;-145.63;27.99;37620.38;5037658;28;20029;-69
2023/07/31 08:55:11;;;;;;;3.78;1.90;;;;;;;-145.63;27.31;37632.09;5038169;28;20057;-68
2023/07/31 08:57:38;;;;;;;3.28;2.10;;;;;;;-145.63;27.03;37659.47;5027414;28;20029;-68
2023/07/31 09:00:05;;;;;;;5.10;2.10;;;;;;;-145.63;28.09;37667.28;5045953;28;20021;-68
2023/07/31 09:02:59;;;;;;;3.80;1.80;;;;;;;-145.63;26.15;37669.25;5026396;28;20030;-68
2023/07/31 09:05:27;;;;;;;3.88;2.13;;;;;;;-145.63;25.75;37622.31;5043400;28;20322;-69
2023/07/31 09:07:54;;;;;;;2.72;1.65;;;;;;;-145.63;25.71;37616.47;5031089;28;20199;-67
2023/07/31 09:10:20;;;;;;;3.42;1.95;;;;;;;-145.63;26.89;37587.13;5034242;28;20069;-68
2023/07/31 09:12:47;;;;;;;7.70;2.17;;;;;;;-145.63;26.97;37575.41;5040637;28;20041;-70
2023/07/31 09:15:13;;;;;;;6.07;2.03;;;;;;;-145.63;26.68;37544.13;5025560;28;20021;-68
2023/07/31 09:17:38;;;;;;;4.57;1.90;;;;;;;-145.63;26.80;37528.50;5025073;28;20030;-69
2023/07/31 09:20:20;;;;;;;4.90;1.90;;;;;;;-145.63;26.69;37485.50;5039593;28;20027;-69
2023/07/31 09:22:49;;;;;;;5.00;2.10;;;;;;;-145.63;25.88;37528.50;5032360;28;20191;-69
2023/07/31 09:25:25;;;;;;;3.70;1.98;;;;;;;-145.63;26.16;36942.06;5032690;28;20021;-67
2023/07/31 09:27:54;;;;;;;4.85;2.15;;;;;;;-145.63;26.23;37503.09;5040344;28;20084;-68
2023/07/31 09:30:21;;;;;;;2.58;1.70;;;;;;;-145.63;26.21;37503.09;5028813;28;20186;-68
2023/07/31 09:32:49;;;;;;;5.20;2.10;;;;;;;-145.63;27.64;37463.97;5044453;28;20045;-66
2023/07/31 09:35:31;;;;;;;2.55;1.98;;;;;;;-145.63;26.01;37456.16;5028900;28;20029;-67
2023/07/31 09:37:59;;;;;;;3.75;2.08;;;;;;;-145.63;26.98;36881.50;5038584;28;20077;-68
2023/07/31 09:40:26;;;;;;;3.10;1.92;;;;;;;-145.63;26.00;37444.44;5037555;28;20030;-68
2023/07/31 09:42:53;;;;;;;2.55;2.00;;;;;;;-145.63;25.22;37505.03;5039830;28;20030;-67
2023/07/31 09:45:19;;;;;;;2.28;2.00;;;;;;;-145.63;26.72;37460.06;5025089;28;20064;-68
2023/07/31 09:47:48;;;;;;;3.75;2.25;;;;;;;-145.63;26.19;37420.97;5024604;28;20037;-67
2023/07/31 09:50:15;;;;;;;4.10;2.13;;;;;;;-145.63;25.98;37411.19;5040751;28;20084;-67
2023/07/31 09:52:42;;;;;;;3.15;2.08;;;;;;;-145.63;25.54;37483.53;5032797;28;20048;-68
2023/07/31 09:55:09;;;;;;;2.72;2.00;;;;;;;-145.63;25.78;37505.03;5031380;28;20027;-68
2023/07/31 09:57:39;;;;;;;2.17;1.90;;;;;;;-145.63;26.52;37436.63;5042185;28;20025;-68
2023/07/31 10:00:09;;;;;;;3.40;2.10;;;;;;;-145.63;26.23;37442.47;5024760;28;20252;-70
2023/07/31 10:02:36;;;;;;;5.05;2.40;;;;;;;-145.63;26.56;37413.16;5042777;28;20051;-67
2023/07/31 10:05:03;;;;;;;2.85;2.13;;;;;;;-145.63;25.54;37409.25;5030364;28;20034;-68
2023/07/31 10:07:33;;;;;;;3.28;2.08;;;;;;;-145.63;25.78;37385.78;5034149;28;20048;-68
2023/07/31 10:10:00;;;;;;;3.28;2.22;;;;;;;-145.63;26.97;37397.53;5038955;28;20049;-68
2023/07/31 10:12:29;;;;;;;2.50;2.25;;;;;;;-145.63;26.40;37395.56;5039211;28;20029;-67
2023/07/31 10:14:56;;;;;;;4.10;2.25;;;;;;;-145.63;24.34;37440.53;5024294;28;20018;-67
2023/07/31 10:17:26;;;;;;;2.50;2.30;;;;;;;-145.63;25.00;37235.28;5023909;28;20036;-67
2023/07/31 10:19:53;;;;;;;2.70;2.13;;;;;;;-145.63;26.30;37448.34;5035415;28;20032;-68
2023/07/31 10:22:22;;;;;;;6.45;3.03;;;;;;;-145.63;25.37;37477.66;5036135;28;20025;-68
2023/07/31 10:24:50;;;;;;;3.30;2.22;;;;;;;-145.63;27.55;37432.72;5027401;28;20029;-67
2023/07/31 10:27:16;;;;;;;3.70;2.30;;;;;;;-145.63;26.59;37448.34;5043872;28;20381;-68
2023/07/31 10:29:43;;;;;;;3.92;2.33;;;;;;;-145.63;27.25;37458.13;5024544;28;20025;-68
2023/07/31 10:32:11;;;;;;;3.30;2.30;;;;;;;-145.63;28.28;37550.00;5042202;28;20022;-67
2023/07/31 10:34:39;;;;;;;3.40;2.80;;;;;;;-145.63;26.05;37495.25;5043619;28;20025;-68
2023/07/31 10:37:23;;;;;;;2.33;2.13;;;;;;;-145.63;26.66;37491.34;5037613;28;20065;-68
2023/07/31 10:39:59;;;;;;;3.55;2.30;;;;;;;-145.63;27.69;37508.94;5023753;28;20034;-68
2023/07/31 10:42:31;;;;;;;3.10;2.50;;;;;;;-145.63;26.27;37606.69;5042631;28;20021;-69
2023/07/31 10:45:07;;;;;;;3.08;2.20;;;;;;;-145.63;25.58;37606.69;5024193;28;20029;-68
2023/07/31 10:47:44;;;;;;;2.95;2.00;;;;;;;-145.63;25.90;37557.81;5023924;28;20022;-68
2023/07/31 10:50:29;;;;;;;4.20;2.50;;;;;;;-145.63;27.81;37583.22;5038314;28;20025;-68
2023/07/31 10:53:03;;;;;;;4.13;2.55;;;;;;;-145.63;27.72;37573.47;5030864;28;20026;-68
2023/07/31 10:55:45;;;;;;;4.55;2.45;;;;;;;-145.63;27.53;37510.91;5032470;28;20029;-68
2023/07/31 10:58:13;;;;;;;4.85;2.60;;;;;;;-145.63;26.93;37573.47;5036524;28;20034;-68
2023/07/31 11:00:43;;;;;;;2.80;2.47;;;;;;;-145.63;26.44;37569.53;5023900;28;20093;-68
2023/07/31 11:03:12;;;;;;;2.50;2.30;;;;;;;-145.63;27.91;37553.91;5023775;28;20042;-68
2023/07/31 11:05:53;;;;;;;3.15;2.30;;;;;;;-145.63;28.74;37589.09;5041859;28;20049;-68
2023/07/31 11:08:27;;;;;;;3.63;2.35;;;;;;;-145.63;27.30;37647.75;5027980;28;20029;-68
2023/07/31 11:11:02;;;;;;;3.10;2.25;;;;;;;-145.63;25.88;37626.25;5035623;28;20385;-68
2023/07/31 11:13:54;;;;;;;3.75;2.30;;;;;;;-145.63;26.33;37612.56;5034327;28;20076;-68
2023/07/31 11:16:22;;;;;;;5.90;2.50;;;;;;;-145.63;26.96;37593.00;5031028;28;20030;-68